createdAt,value
2018-04-11T00:01:38.402Z,99987.63
2018-04-11T00:04:06.785Z,99981.13
2018-04-11T00:06:35.206Z,99978.51
2018-04-11T00:09:04.360Z,99988.02
2018-04-11T00:11:32.758Z,99995.40
2018-04-11T00:14:01.170Z,100000.59
2018-04-11T00:16:29.585Z,99999.73
2018-04-11T00:18:57.970Z,100001.04
2018-04-11T00:21:26.377Z,100002.80
2018-04-11T00:23:54.857Z,100001.47
2018-04-11T00:26:23.379Z,100001.90
2018-04-11T00:28:51.970Z,99999.73
2018-04-11T00:31:20.361Z,99992.81
2018-04-11T00:33:49.533Z,99993.24
2018-04-11T00:36:17.914Z,99999.31
2018-04-11T00:38:46.325Z,100002.75
2018-04-11T00:41:15.585Z,100004.93
2018-04-11T00:43:43.991Z,100010.56
2018-04-11T00:46:12.398Z,100024.41
2018-04-11T00:48:41.541Z,100023.98
2018-04-11T00:51:09.997Z,100026.60
2018-04-11T00:53:38.380Z,100016.67
2018-04-11T00:56:06.793Z,100026.17
2018-04-11T00:58:35.202Z,100032.66
2018-04-11T01:01:03.630Z,100037.87
2018-04-11T01:03:32.033Z,100040.95
2018-04-11T01:06:00.406Z,100044.86
2018-04-11T01:08:28.793Z,100046.60
2018-04-11T01:10:57.177Z,100043.53
2018-04-11T01:13:26.338Z,100050.89
2018-04-11T01:15:55.591Z,100047.02
2018-04-11T01:18:23.990Z,100050.48
2018-04-11T01:20:52.402Z,100049.19
2018-04-11T01:23:20.798Z,100053.51
2018-04-11T01:25:50.027Z,100058.30
2018-04-11T01:28:18.417Z,100059.58
2018-04-11T01:30:46.892Z,100060.89
2018-04-11T01:33:15.213Z,100069.56
2018-04-11T01:35:43.640Z,100072.62
2018-04-11T01:38:12.028Z,100067.85
2018-04-11T01:40:41.217Z,100069.12
2018-04-11T01:43:10.390Z,100062.65
2018-04-11T01:45:38.788Z,100073.47
2018-04-11T01:48:07.177Z,100074.78
2018-04-11T01:50:36.374Z,100079.95
2018-04-11T01:53:04.776Z,100082.55
2018-04-11T01:55:33.989Z,100085.59
2018-04-11T01:58:02.378Z,100086.45
2018-04-11T02:00:30.789Z,100080.83
2018-04-11T02:02:59.186Z,100083.41
2018-04-11T02:05:28.325Z,100087.33
2018-04-11T02:07:57.479Z,100086.02
2018-04-11T02:10:25.854Z,100082.13
2018-04-11T02:12:54.253Z,100082.53
2018-04-11T02:15:22.679Z,100084.70
2018-04-11T02:17:51.826Z,100087.72
2018-04-11T02:20:20.289Z,100087.70
2018-04-11T02:22:48.664Z,100077.77
2018-04-11T02:25:17.097Z,100070.39
2018-04-11T02:27:45.496Z,100079.44
2018-04-11T02:30:14.641Z,100078.56
2018-04-11T02:32:43.800Z,100070.40
2018-04-11T02:35:13.877Z,100066.95
2018-04-11T02:37:42.318Z,100070.79
2018-04-11T02:40:11.473Z,100082.46
2018-04-11T02:42:39.880Z,100083.75
2018-04-11T02:45:08.246Z,100078.56
2018-04-11T02:47:36.723Z,100082.86
2018-04-11T02:50:05.228Z,100083.30
2018-04-11T02:52:33.613Z,100078.50
2018-04-11T02:55:02.017Z,100074.63
2018-04-11T02:57:31.175Z,100063.40
2018-04-11T02:59:59.552Z,100051.78
2018-04-11T03:02:28.000Z,100050.89
2018-04-11T03:04:56.436Z,100053.42
2018-04-11T03:07:24.818Z,100059.91
2018-04-11T03:09:53.245Z,100057.72
2018-04-11T03:12:22.412Z,100060.30
2018-04-11T03:14:50.814Z,100068.93
2018-04-11T03:17:19.963Z,100069.36
2018-04-11T03:19:48.363Z,100070.66
2018-04-11T03:22:16.753Z,100059.00
2018-04-11T03:24:45.122Z,100051.63
2018-04-11T03:27:13.648Z,100045.09
2018-04-11T03:29:42.052Z,100046.83
2018-04-11T03:32:10.441Z,100048.98
2018-04-11T03:34:38.850Z,100043.77
2018-04-11T03:37:07.252Z,100038.98
2018-04-11T03:39:35.645Z,100041.57
2018-04-11T03:42:04.204Z,100044.20
2018-04-11T03:44:33.336Z,100052.45
2018-04-11T03:47:01.734Z,100047.32
2018-04-11T03:49:30.897Z,100043.83
2018-04-11T03:51:59.345Z,100048.59
2018-04-11T03:54:27.777Z,100047.73
2018-04-11T03:56:56.161Z,100045.58
2018-04-11T03:59:24.623Z,100040.81
2018-04-11T04:01:53.036Z,100046.45
2018-04-11T04:04:21.457Z,100042.09
2018-04-11T04:06:49.850Z,100045.57
2018-04-11T04:09:18.233Z,100048.19
2018-04-11T04:11:46.639Z,100042.14
2018-04-11T04:14:32.718Z,100041.69
2018-04-11T04:17:18.812Z,100046.87
2018-04-11T04:23:07.426Z,100059.44
2018-04-11T04:25:36.577Z,100059.44
2018-04-11T04:28:05.006Z,100058.14
2018-04-11T04:30:34.168Z,100054.29
2018-04-11T04:33:03.329Z,100053.39
2018-04-11T04:35:31.727Z,100051.20
2018-04-11T04:38:00.097Z,100053.80
2018-04-11T04:40:28.493Z,100054.27
2018-04-11T04:42:56.898Z,100059.05
2018-04-11T04:45:25.293Z,100062.05
2018-04-11T04:47:53.730Z,100063.36
2018-04-11T04:50:22.140Z,100065.09
2018-04-11T04:52:50.556Z,100064.64
2018-04-11T04:55:18.957Z,100064.66
2018-04-11T04:57:48.128Z,100065.53
2018-04-11T05:00:16.518Z,100064.23
2018-04-11T05:02:44.954Z,100057.75
2018-04-11T05:05:13.353Z,100054.77
2018-04-11T05:07:41.858Z,100056.52
2018-04-11T05:10:10.306Z,100051.71
2018-04-11T05:12:38.717Z,100063.81
2018-04-11T05:15:07.137Z,100084.59
2018-04-11T05:17:36.335Z,100100.61
2018-04-11T05:20:05.514Z,100115.37
2018-04-11T05:22:33.914Z,100120.56
2018-04-11T05:25:03.117Z,100117.09
2018-04-11T05:27:31.504Z,100114.94
2018-04-11T05:30:00.659Z,100108.47
2018-04-11T05:32:29.065Z,100100.70
2018-04-11T05:34:57.514Z,100086.83
2018-04-11T05:37:25.914Z,100080.77
2018-04-11T05:39:54.302Z,100084.23
2018-04-11T05:42:22.721Z,100090.30
2018-04-11T05:44:51.112Z,100087.29
2018-04-11T05:47:20.269Z,100095.05
2018-04-11T05:49:48.674Z,100100.22
2018-04-11T05:52:17.062Z,100098.50
2018-04-11T05:54:46.221Z,100099.36
2018-04-11T05:57:14.662Z,100105.84
2018-04-11T05:59:43.833Z,100101.54
2018-04-11T06:02:12.217Z,100107.23
2018-04-11T06:04:40.617Z,100105.87
2018-04-11T06:07:09.797Z,100110.19
2018-04-11T06:09:38.188Z,100113.66
2018-04-11T06:12:06.594Z,100119.28
2018-04-11T06:14:35.758Z,100115.34
2018-04-11T06:17:04.224Z,100117.19
2018-04-11T06:19:32.597Z,100117.60
2018-04-11T06:22:00.982Z,100106.77
2018-04-11T06:24:29.494Z,100111.11
2018-04-11T06:26:57.899Z,100112.77
2018-04-11T06:29:26.317Z,100119.23
2018-04-11T06:31:54.720Z,100125.71
2018-04-11T06:34:23.121Z,100121.41
2018-04-11T06:36:51.511Z,100124.02
2018-04-11T06:39:19.968Z,100115.40
2018-04-11T06:41:48.348Z,100119.31
2018-04-11T06:44:16.748Z,100118.41
2018-04-11T06:46:45.140Z,100121.03
2018-04-11T06:49:14.286Z,100120.64
2018-04-11T06:51:43.547Z,100118.94
2018-04-11T06:54:11.959Z,100125.87
2018-04-11T06:56:40.394Z,100124.58
2018-04-11T06:59:08.790Z,100122.84
2018-04-11T07:01:37.159Z,100132.37
2018-04-11T07:04:05.561Z,100135.37
2018-04-11T07:06:33.959Z,100138.39
2018-04-11T07:09:02.380Z,100134.52
2018-04-11T07:11:31.550Z,100133.64
2018-04-11T07:13:59.982Z,100141.03
2018-04-11T07:16:28.362Z,100138.41
2018-04-11T07:18:56.755Z,100138.42
2018-04-11T07:21:25.154Z,100137.99
2018-04-11T07:23:53.569Z,100141.45
2018-04-11T07:26:21.957Z,100137.12
2018-04-11T07:28:50.379Z,100141.48
2018-04-11T07:31:18.818Z,100142.77
2018-04-11T07:33:47.321Z,100145.37
2018-04-11T07:36:16.492Z,100149.29
2018-04-11T07:38:44.899Z,100151.45
2018-04-11T07:41:13.334Z,100153.20
2018-04-11T07:43:41.808Z,100156.22
2018-04-11T07:46:10.366Z,100163.58
2018-04-11T07:48:38.726Z,100157.97
2018-04-11T07:51:07.186Z,100166.63
2018-04-11T07:53:35.654Z,100171.38
2018-04-11T07:56:04.057Z,100170.09
2018-04-11T07:58:32.474Z,100161.45
2018-04-11T08:01:01.733Z,100166.66
2018-04-11T08:03:30.922Z,100170.98
2018-04-11T08:06:00.096Z,100173.55
2018-04-11T08:08:29.274Z,100172.69
2018-04-11T08:10:57.685Z,100168.39
2018-04-11T08:13:26.855Z,100173.61
2018-04-11T08:15:55.350Z,100171.01
2018-04-11T08:18:23.750Z,100168.80
2018-04-11T08:20:52.898Z,100166.26
2018-04-11T08:23:21.285Z,100170.62
2018-04-11T08:25:49.786Z,100171.52
2018-04-11T08:28:18.173Z,100171.50
2018-04-11T08:30:46.621Z,100171.43
2018-04-11T08:33:15.022Z,100176.22
2018-04-11T08:35:43.432Z,100167.12
2018-04-11T08:38:12.864Z,100174.04
2018-04-11T08:40:41.350Z,100178.33
2018-04-11T08:43:10.542Z,100180.92
2018-04-11T08:45:39.957Z,100177.88
2018-04-11T08:48:09.137Z,100173.95
2018-04-11T08:50:37.539Z,100180.47
2018-04-11T08:53:06.700Z,100175.66
2018-04-11T08:55:35.189Z,100175.70
2018-04-11T08:58:03.590Z,100181.36
2018-04-11T09:00:32.021Z,100181.30
2018-04-11T09:03:00.421Z,100186.16
2018-04-11T09:05:28.858Z,100183.13
2018-04-11T09:07:57.206Z,100185.75
2018-04-11T09:10:25.667Z,100192.11
2018-04-11T09:12:54.035Z,100195.23
2018-04-11T09:15:22.419Z,100195.17
2018-04-11T09:17:50.809Z,100191.30
2018-04-11T09:20:19.320Z,100192.22
2018-04-11T09:22:47.747Z,100191.34
2018-04-11T09:25:16.918Z,100184.44
2018-04-11T09:27:45.317Z,100187.00
2018-04-11T09:30:14.477Z,100182.24
2018-04-11T09:32:42.908Z,100181.84
2018-04-11T09:35:12.086Z,100181.05
2018-04-11T09:37:40.510Z,100176.73
2018-04-11T09:40:08.873Z,100177.58
2018-04-11T09:42:38.054Z,100177.09
2018-04-11T09:45:06.435Z,100179.63
2018-04-11T09:47:34.826Z,100182.25
2018-04-11T09:50:03.195Z,100194.06
2018-04-11T09:52:31.595Z,100191.90
2018-04-11T09:54:59.988Z,100192.77
2018-04-11T09:57:29.156Z,100185.79
2018-04-11T09:59:57.570Z,100192.78
2018-04-11T10:02:26.729Z,100194.93
2018-04-11T10:04:55.137Z,100193.63
2018-04-11T10:07:23.542Z,100200.94
2018-04-11T10:09:52.702Z,100195.28
2018-04-11T10:12:21.140Z,100194.89
2018-04-11T10:14:49.619Z,100194.06
2018-04-11T10:17:18.803Z,100191.44
2018-04-11T10:19:47.203Z,100193.65
2018-04-11T10:22:16.353Z,100194.95
2018-04-11T10:24:44.783Z,100198.39
2018-04-11T10:27:13.938Z,100203.17
2018-04-11T10:29:42.354Z,100200.56
2018-04-11T10:32:10.760Z,100202.23
2018-04-11T10:34:39.173Z,100204.45
2018-04-11T10:37:08.208Z,100196.58
2018-04-11T10:39:36.704Z,100195.80
2018-04-11T10:42:05.178Z,100190.62
2018-04-11T10:44:33.587Z,100190.59
2018-04-11T10:47:02.767Z,100194.06
2018-04-11T10:49:31.173Z,100191.88
2018-04-11T10:52:00.363Z,100191.05
2018-04-11T10:54:29.583Z,100196.67
2018-04-11T10:56:58.765Z,100184.98
2018-04-11T10:59:27.972Z,100184.08
2018-04-11T11:01:57.173Z,100191.91
2018-04-11T11:04:26.391Z,100190.17
2018-04-11T11:06:54.789Z,100183.21
2018-04-11T11:11:47.910Z,100187.13
2018-04-11T11:14:16.322Z,100191.03
2018-04-11T11:16:45.506Z,100181.48
2018-04-11T11:19:13.882Z,100191.04
2018-04-11T11:21:42.309Z,100181.91
2018-04-11T11:24:10.741Z,100182.78
2018-04-11T11:26:39.604Z,100189.30
2018-04-11T11:29:08.089Z,100190.59
2018-04-11T11:31:36.499Z,100189.70
2018-04-11T11:34:04.902Z,100189.72
2018-04-11T11:36:33.314Z,100183.17
2018-04-11T11:39:02.680Z,100180.08
2018-04-11T11:41:31.070Z,100177.85
2018-04-11T11:43:59.480Z,100175.18
2018-04-11T11:46:27.938Z,100175.54
2018-04-11T11:48:56.427Z,100167.91
2018-04-11T11:51:25.663Z,100167.29
2018-04-11T11:53:54.873Z,100163.73
2018-04-11T11:56:23.287Z,100159.06
2018-04-11T11:58:51.691Z,100153.81
2018-04-11T12:01:20.517Z,100155.64
2018-04-11T12:03:49.682Z,100151.70
2018-04-11T12:06:18.441Z,100150.47
2018-04-11T12:08:46.897Z,100152.43
2018-04-11T12:11:16.057Z,100147.28
2018-04-11T12:13:44.462Z,100148.59
2018-04-11T12:16:12.863Z,100145.80
2018-04-11T12:18:42.294Z,100149.54
2018-04-11T12:21:10.707Z,100143.11
2018-04-11T12:23:39.161Z,100149.70
2018-04-11T12:26:08.529Z,100150.06
2018-04-11T12:28:37.730Z,100153.55
2018-04-11T12:31:06.128Z,100155.25
2018-04-11T12:33:35.326Z,100154.69
2018-04-11T12:36:04.483Z,100153.20
2018-04-11T12:38:32.889Z,100150.57
2018-04-11T12:41:01.339Z,100148.86
2018-04-11T12:43:29.759Z,100154.55
2018-04-11T12:45:58.183Z,100159.95
2018-04-11T12:48:26.582Z,100156.84
2018-04-11T12:50:54.980Z,100162.52
2018-04-11T12:53:23.378Z,100152.98
2018-04-11T12:55:51.782Z,100162.17
2018-04-11T12:58:20.209Z,100158.20
2018-04-11T13:00:48.611Z,100153.91
2018-04-11T13:03:17.003Z,100156.25
2018-04-11T13:05:45.451Z,100155.77
2018-04-11T13:08:13.957Z,100155.50
2018-04-11T13:10:42.370Z,100148.25
2018-04-11T13:13:10.795Z,100144.45
2018-04-11T13:15:40.005Z,100140.34
2018-04-11T13:18:08.407Z,100138.00
2018-04-11T13:20:36.807Z,100127.72
2018-04-11T13:23:05.434Z,100125.95
2018-04-11T13:25:33.836Z,100128.09
2018-04-11T13:28:03.031Z,100122.23
2018-04-11T13:30:32.247Z,100119.49
2018-04-11T13:33:00.819Z,100118.19
2018-04-11T13:35:30.006Z,100120.68
2018-04-11T13:37:58.415Z,100114.33
2018-04-11T13:40:26.815Z,100115.80
2018-04-11T13:42:55.222Z,100108.80
2018-04-11T13:45:23.636Z,100112.91
2018-04-11T13:47:52.018Z,100113.52
2018-04-11T13:50:20.426Z,100107.42
2018-04-11T13:52:49.596Z,100100.47
2018-04-11T13:55:18.002Z,100101.64
2018-04-11T13:57:47.232Z,100100.48
2018-04-11T14:00:15.711Z,100099.81
2018-04-11T14:02:44.150Z,100094.20
2018-04-11T14:05:12.554Z,100097.18
2018-04-11T14:07:41.698Z,100093.52
2018-04-11T14:10:10.118Z,100105.52
2018-04-11T14:12:38.518Z,100099.53
2018-04-11T14:15:06.961Z,100101.37
2018-04-11T14:17:35.395Z,100106.65
2018-04-11T14:20:04.560Z,100107.52
2018-04-11T14:22:32.949Z,100110.12
2018-04-11T14:25:01.357Z,100109.97
2018-04-11T14:27:30.532Z,100104.33
2018-04-11T14:29:58.933Z,100100.94
2018-04-11T14:32:27.358Z,100106.16
2018-04-11T14:34:55.784Z,100107.19
2018-04-11T14:37:24.216Z,100103.31
2018-04-11T14:39:52.654Z,100107.30
2018-04-11T14:42:21.048Z,100093.77
2018-04-11T14:44:49.467Z,100092.03
2018-04-11T14:47:17.868Z,100093.45
2018-04-11T14:49:46.285Z,100094.42
2018-04-11T14:52:14.730Z,100096.30
2018-04-11T14:54:43.130Z,100087.84
2018-04-11T14:57:11.557Z,100092.98
2018-04-11T14:59:39.958Z,100089.64
2018-04-11T15:02:09.178Z,100083.56
2018-04-11T15:04:37.599Z,100089.77
2018-04-11T15:07:06.018Z,100087.25
2018-04-11T15:09:35.225Z,100086.33
2018-04-11T15:12:04.382Z,100079.77
2018-04-11T15:14:32.797Z,100072.72
2018-04-11T15:17:01.959Z,100072.27
2018-04-11T15:19:30.406Z,100061.20
2018-04-11T15:21:58.795Z,100053.69
2018-04-11T15:24:27.221Z,100063.25
2018-04-11T15:26:55.651Z,100064.27
2018-04-11T15:29:24.874Z,100064.05
2018-04-11T15:31:53.290Z,100067.50
2018-04-11T15:34:21.742Z,100065.96
2018-04-11T15:36:50.917Z,100067.24
2018-04-11T15:39:20.073Z,100062.53
2018-04-11T15:41:48.488Z,100061.70
2018-04-11T15:44:16.901Z,100062.31
2018-04-11T15:46:45.312Z,100061.69
2018-04-11T15:49:13.735Z,100054.81
2018-04-11T15:51:42.137Z,100056.26
2018-04-11T15:54:11.304Z,100049.52
2018-04-11T15:56:39.758Z,100051.30
2018-04-11T15:59:08.195Z,100041.30
2018-04-11T16:01:36.720Z,100041.90
2018-04-11T16:04:05.174Z,100040.87
2018-04-11T16:06:34.328Z,100035.52
2018-04-11T16:09:02.746Z,100037.96
2018-04-11T16:11:31.170Z,100038.97
2018-04-11T16:13:59.618Z,100040.03
2018-04-11T16:16:28.864Z,100035.52
2018-04-11T16:18:57.251Z,100042.86
2018-04-11T16:21:25.673Z,100044.03
2018-04-11T16:23:54.123Z,100040.42
2018-04-11T16:26:22.566Z,100034.05
2018-04-11T16:28:51.761Z,100031.44
2018-04-11T16:31:20.974Z,100033.86
2018-04-11T16:33:50.163Z,100027.78
2018-04-11T16:36:19.366Z,100021.04
2018-04-11T16:38:48.546Z,100019.86
2018-04-11T16:41:16.911Z,100024.88
2018-04-11T16:43:45.385Z,100022.46
2018-04-11T16:46:13.830Z,100018.50
2018-04-11T16:48:43.006Z,100016.37
2018-04-11T16:51:11.420Z,100014.69
2018-04-11T16:53:40.640Z,100014.48
2018-04-11T16:56:09.043Z,100007.83
2018-04-11T16:58:37.446Z,100011.73
2018-04-11T17:01:05.847Z,100008.53
2018-04-11T17:03:34.304Z,100012.91
2018-04-11T17:06:02.738Z,100003.48
2018-04-11T17:08:31.918Z,100004.42
2018-04-11T17:11:01.103Z,100004.03
2018-04-11T17:13:29.514Z,100003.57
2018-04-11T17:15:58.701Z,99996.34
2018-04-11T17:18:27.113Z,100000.08
2018-04-11T17:21:13.337Z,99996.14
2018-04-11T17:23:59.662Z,99998.60
2018-04-11T17:32:15.402Z,99997.91
2018-04-11T17:34:43.802Z,100001.47
2018-04-11T17:37:12.212Z,99995.44
2018-04-11T17:39:40.617Z,100000.23
2018-04-11T17:42:09.010Z,99997.64
2018-04-11T17:44:38.190Z,99993.38
2018-04-11T17:47:06.597Z,99993.02
2018-04-11T17:49:35.822Z,100000.03
2018-04-11T17:52:04.210Z,100004.00
2018-04-11T17:54:32.646Z,100003.98
2018-04-11T17:57:01.058Z,100007.45
2018-04-11T17:59:30.293Z,100011.49
2018-04-11T18:01:58.768Z,100006.34
2018-04-11T18:04:27.270Z,100002.97
2018-04-11T18:06:55.738Z,100006.47
2018-04-11T18:09:24.130Z,100015.98
2018-04-11T18:11:52.514Z,100010.37
2018-04-11T18:14:20.988Z,100011.70
2018-04-11T18:16:49.463Z,100012.54
2018-04-11T18:19:17.889Z,100004.38
2018-04-11T18:21:46.279Z,100009.66
2018-04-11T18:24:14.701Z,100010.59
2018-04-11T18:26:43.897Z,100006.28
2018-04-11T18:29:13.085Z,100001.52
2018-04-11T18:31:41.488Z,99998.05
2018-04-11T18:34:10.719Z,100005.41
2018-04-11T18:36:39.066Z,100004.12
2018-04-11T18:39:08.328Z,100007.53
2018-04-11T18:41:36.763Z,100008.84
2018-04-11T18:44:06.004Z,100008.84
2018-04-11T18:46:34.447Z,100008.41
2018-04-11T18:49:03.664Z,100008.40
2018-04-11T18:51:32.739Z,100017.00
2018-04-11T18:54:01.137Z,100016.98
2018-04-11T18:56:30.311Z,100016.53
2018-04-11T18:58:59.662Z,100023.42
2018-04-11T19:01:29.124Z,100017.73
2018-04-11T19:04:00.041Z,100018.55
2018-04-11T19:06:28.631Z,100021.45
2018-04-11T19:08:57.103Z,100024.87
2018-04-11T19:11:25.519Z,100028.38
2018-04-11T19:13:55.077Z,100025.70
2018-04-11T19:16:24.218Z,100030.83
2018-04-11T19:18:53.428Z,100032.91
2018-04-11T19:21:23.195Z,100035.45
2018-04-11T19:23:51.944Z,100030.23
2018-04-11T19:26:21.138Z,100035.45
2018-04-11T19:28:49.985Z,100031.48
2018-04-11T19:31:18.414Z,100027.50
2018-04-11T19:33:46.929Z,100023.52
2018-04-11T19:36:15.587Z,100025.61
2018-04-11T19:38:45.149Z,100022.59
2018-04-11T19:41:21.737Z,100022.48
2018-04-11T19:43:50.179Z,100018.92
2018-04-11T19:46:18.672Z,100016.73
2018-04-11T19:48:47.175Z,100020.15
2018-04-11T19:51:15.610Z,100014.03
2018-04-11T19:53:46.006Z,100009.20
2018-04-11T19:56:14.504Z,100006.62
2018-04-11T19:58:42.884Z,100014.70
2018-04-11T20:01:12.069Z,100012.11
2018-04-11T20:03:40.459Z,100005.16
2018-04-11T20:06:08.851Z,100005.55
2018-04-11T20:08:37.248Z,100007.52
2018-04-11T20:11:05.653Z,100010.81
2018-04-11T20:13:35.054Z,100004.02
2018-04-11T20:16:04.250Z,100010.34
2018-04-11T20:18:32.659Z,100012.45
2018-04-11T20:21:01.849Z,100008.61
2018-04-11T20:23:33.041Z,100004.26
2018-04-11T20:26:01.433Z,100006.80
2018-04-11T20:28:29.822Z,100013.66
2018-04-11T20:30:58.249Z,100008.02
2018-04-11T20:33:27.470Z,100012.23
2018-04-11T20:35:55.915Z,100006.72
2018-04-11T20:38:24.350Z,100007.20
2018-04-11T20:40:52.763Z,100001.45
2018-04-11T20:43:21.163Z,100004.77
2018-04-11T20:45:49.608Z,100006.07
2018-04-11T20:48:18.952Z,99998.70
2018-04-11T20:50:48.964Z,100005.72
2018-04-11T20:53:17.361Z,99998.73
2018-04-11T20:55:45.791Z,99992.53
2018-04-11T20:58:14.246Z,99986.97
2018-04-11T21:00:43.422Z,99983.77
2018-04-11T21:03:11.830Z,99983.67
2018-04-11T21:05:41.034Z,99977.98
2018-04-11T21:08:10.243Z,99974.56
2018-04-11T21:10:39.434Z,99970.16
2018-04-11T21:13:08.650Z,99968.88
2018-04-11T21:15:37.063Z,99963.65
2018-04-11T21:18:05.490Z,99966.61
2018-04-11T21:20:33.915Z,99963.59
2018-04-11T21:23:02.300Z,99964.41
2018-04-11T21:25:30.677Z,99964.41
2018-04-11T21:27:59.172Z,99952.83
2018-04-11T21:30:27.557Z,99951.16
2018-04-11T21:32:56.073Z,99955.51
2018-04-11T21:35:24.533Z,99948.14
2018-04-11T21:37:52.977Z,99941.20
2018-04-11T21:40:22.155Z,99939.03
2018-04-11T21:42:50.546Z,99931.18
2018-04-11T21:45:18.931Z,99936.78
2018-04-11T21:47:47.321Z,99934.11
2018-04-11T21:50:16.525Z,99932.33
2018-04-11T21:52:45.671Z,99930.65
2018-04-11T21:55:14.154Z,99924.67
2018-04-11T21:57:42.558Z,99926.30
2018-04-11T22:00:11.798Z,99925.00
2018-04-11T22:02:40.942Z,99930.98
2018-04-11T22:05:09.413Z,99921.65
2018-04-11T22:07:37.795Z,99919.31
2018-04-11T22:10:06.205Z,99922.52
2018-04-11T22:12:34.669Z,99920.31
2018-04-11T22:15:03.110Z,99909.13
2018-04-11T22:17:31.495Z,99908.11
2018-04-11T22:19:59.861Z,99902.45
2018-04-11T22:22:28.255Z,99903.70
2018-04-11T22:24:56.628Z,99904.03
2018-04-11T22:27:25.018Z,99897.56
2018-04-11T22:29:53.436Z,99902.20
2018-04-11T22:32:21.866Z,99896.13
2018-04-11T22:34:50.532Z,99894.59
2018-04-11T22:37:18.911Z,99889.81
2018-04-11T22:39:47.307Z,99891.09
2018-04-11T22:42:15.676Z,99892.23
2018-04-11T22:44:44.110Z,99891.70
2018-04-11T22:47:12.498Z,99886.92
2018-04-11T22:49:40.921Z,99894.98
2018-04-11T22:52:09.302Z,99889.23
2018-04-11T22:54:37.749Z,99888.67
2018-04-11T22:57:06.373Z,99876.10
2018-04-11T22:59:34.860Z,99873.45
2018-04-11T23:02:03.250Z,99878.46
2018-04-11T23:04:31.647Z,99873.19
2018-04-11T23:07:00.033Z,99864.91
2018-04-11T23:09:28.441Z,99865.17
2018-04-11T23:11:56.954Z,99864.67
2018-04-11T23:14:26.114Z,99868.06
2018-04-11T23:16:54.482Z,99866.13
2018-04-11T23:19:22.881Z,99863.09
2018-04-11T23:21:51.274Z,99865.69
2018-04-11T23:24:19.673Z,99862.18
2018-04-11T23:26:48.118Z,99862.13
2018-04-11T23:29:16.504Z,99855.66
2018-04-11T23:31:44.901Z,99851.63
2018-04-11T23:34:14.063Z,99849.09
2018-04-11T23:36:42.439Z,99851.45
2018-04-11T23:39:10.830Z,99849.28
2018-04-11T23:41:39.210Z,99848.44
2018-04-11T23:44:07.599Z,99841.42
2018-04-11T23:46:36.042Z,99845.78
2018-04-11T23:49:05.171Z,99852.59
2018-04-11T23:51:33.653Z,99856.39
2018-04-11T23:54:02.025Z,99852.41
2018-04-11T23:56:30.414Z,99843.31
2018-04-11T23:58:58.804Z,99835.14
